createdAt,value
2023-03-04T00:00:53.357Z,11.20
2023-03-04T00:03:24.023Z,13.20
2023-03-04T00:06:03.959Z,9.43
2023-03-04T00:08:34.669Z,16.27
2023-03-04T00:11:05.188Z,4.50
2023-03-04T00:13:34.043Z,12.47
2023-03-04T00:16:11.970Z,8.23
2023-03-04T00:18:42.600Z,7.23
2023-03-04T00:21:10.538Z,10.10
2023-03-04T00:23:46.831Z,16.57
2023-03-04T00:26:15.030Z,17.50
2023-03-04T00:28:47.754Z,13.67
2023-03-04T00:31:20.931Z,10.97
2023-03-04T00:33:55.821Z,10.23
2023-03-04T00:36:29.707Z,9.90
2023-03-04T00:39:05.771Z,17.13
2023-03-04T00:41:36.135Z,10.13
2023-03-04T00:44:06.472Z,17.83
2023-03-04T00:46:37.663Z,17.45
2023-03-04T00:49:05.966Z,14.10
2023-03-04T00:51:49.633Z,11.33
2023-03-04T00:54:24.444Z,10.87
2023-03-04T00:57:09.762Z,9.27
2023-03-04T00:59:49.153Z,19.73
2023-03-04T01:02:19.222Z,10.50
2023-03-04T01:04:54.671Z,4.73
2023-03-04T01:07:41.179Z,9.67
2023-03-04T01:10:17.252Z,8.63
2023-03-04T01:12:54.787Z,8.97
2023-03-04T01:15:29.439Z,13.40
2023-03-04T01:18:04.247Z,6.73
2023-03-04T01:20:38.109Z,10.53
2023-03-04T01:23:07.697Z,9.73
2023-03-04T01:25:38.763Z,6.50
2023-03-04T01:28:12.015Z,14.10
2023-03-04T01:33:27.672Z,9.83
2023-03-04T01:36:00.835Z,7.05
2023-03-04T01:38:32.399Z,7.47
2023-03-04T01:43:51.293Z,15.77
2023-03-04T01:46:21.872Z,9.65
2023-03-04T01:48:52.624Z,7.53
2023-03-04T01:51:33.696Z,12.67
2023-03-04T01:54:12.437Z,12.83
2023-03-04T01:56:43.857Z,11.63
2023-03-04T01:59:29.780Z,7.72
2023-03-04T02:02:06.797Z,32.37
2023-03-04T02:04:44.140Z,18.37
2023-03-04T02:07:13.452Z,17.73
2023-03-04T02:09:46.956Z,12.23
2023-03-04T02:12:27.343Z,12.03
2023-03-04T02:20:28.641Z,20.17
2023-03-04T02:23:14.117Z,12.87
2023-03-04T02:26:24.582Z,13.23
2023-03-04T02:28:59.078Z,12.18
2023-03-04T02:31:36.775Z,12.27
2023-03-04T02:34:25.968Z,7.03
2023-03-04T02:36:58.552Z,11.27
2023-03-04T02:39:42.821Z,16.37
2023-03-04T02:42:18.798Z,14.63
2023-03-04T02:44:55.942Z,11.63
2023-03-04T02:47:26.628Z,14.30
2023-03-04T02:50:09.185Z,10.03
2023-03-04T02:52:43.539Z,9.57
2023-03-04T02:55:12.455Z,12.33
2023-03-04T02:58:10.952Z,23.03
2023-03-04T03:00:43.300Z,10.13
2023-03-04T03:03:15.792Z,11.70
2023-03-04T03:06:01.921Z,7.93
2023-03-04T03:08:33.985Z,13.10
2023-03-04T03:11:05.368Z,7.20
2023-03-04T03:13:36.159Z,9.50
2023-03-04T03:16:10.627Z,11.13
2023-03-04T03:18:42.551Z,10.67
2023-03-04T03:24:01.942Z,3.27
2023-03-04T03:26:36.882Z,9.93
2023-03-04T03:29:08.186Z,25.93
2023-03-04T03:31:40.441Z,10.40
2023-03-04T03:34:11.607Z,9.50
2023-03-04T03:36:50.988Z,8.73
2023-03-04T03:39:21.319Z,9.87
2023-03-04T03:41:54.537Z,9.00
2023-03-04T03:44:39.018Z,22.90
2023-03-04T03:47:07.192Z,8.37
2023-03-04T03:49:52.293Z,14.53
2023-03-04T03:52:22.630Z,10.17
2023-03-04T03:54:56.462Z,11.98
2023-03-04T03:57:35.793Z,4.90
2023-03-04T04:00:22.469Z,9.17
2023-03-04T04:02:53.380Z,9.77
2023-03-04T04:05:27.177Z,6.30
2023-03-04T04:07:57.396Z,6.80
2023-03-04T04:10:43.767Z,16.40
2023-03-04T04:13:15.011Z,11.90
2023-03-04T04:15:53.808Z,10.20
2023-03-04T04:18:28.588Z,14.27
2023-03-04T04:20:57.502Z,6.77
2023-03-04T04:23:28.498Z,8.70
2023-03-04T04:26:14.970Z,9.73
2023-03-04T04:28:45.261Z,11.87
2023-03-04T04:31:26.665Z,14.50
2023-03-04T04:33:57.461Z,12.07
2023-03-04T04:36:31.537Z,9.30
2023-03-04T04:39:05.661Z,11.67
2023-03-04T04:41:48.599Z,7.43
2023-03-04T04:44:27.863Z,9.70
2023-03-04T04:46:58.973Z,11.50
2023-03-04T04:49:37.071Z,7.38
2023-03-04T04:52:16.028Z,12.10
2023-03-04T04:54:47.436Z,9.73
2023-03-04T04:57:22.953Z,6.93
2023-03-04T05:00:01.685Z,10.83
2023-03-04T05:02:38.860Z,10.33
2023-03-04T05:05:11.044Z,9.00
2023-03-04T05:07:55.091Z,13.87
2023-03-04T05:10:27.525Z,13.17
2023-03-04T05:13:01.936Z,6.10
2023-03-04T05:15:50.829Z,14.97
2023-03-04T05:18:18.692Z,9.30
2023-03-04T05:20:53.275Z,6.20
2023-03-04T05:23:32.352Z,19.40
2023-03-04T05:26:03.143Z,7.87
2023-03-04T05:28:32.027Z,19.77
2023-03-04T05:31:03.069Z,21.07
2023-03-04T05:33:34.942Z,8.45
2023-03-04T05:36:20.496Z,12.15
2023-03-04T05:38:59.699Z,16.83
2023-03-04T05:41:36.195Z,13.03
2023-03-04T05:44:06.631Z,14.40
2023-03-04T05:46:42.453Z,15.93
2023-03-04T05:49:26.656Z,11.93
2023-03-04T05:51:57.472Z,7.33
2023-03-04T05:54:30.600Z,15.20
2023-03-04T05:57:06.472Z,8.70
2023-03-04T05:59:37.914Z,9.33
2023-03-04T06:02:08.344Z,6.60
2023-03-04T06:07:27.146Z,9.83
2023-03-04T06:09:58.470Z,6.47
2023-03-04T06:12:27.392Z,6.95
2023-03-04T06:14:59.663Z,8.83
2023-03-04T06:17:33.961Z,8.40
2023-03-04T06:20:12.088Z,12.80
2023-03-04T06:22:43.078Z,9.10
2023-03-04T06:25:18.034Z,11.05
2023-03-04T06:27:55.288Z,14.10
2023-03-04T06:30:26.523Z,9.13
2023-03-04T06:32:59.894Z,15.88
2023-03-04T06:35:34.192Z,6.40
2023-03-04T06:38:11.244Z,8.57
2023-03-04T06:40:57.632Z,7.47
2023-03-04T06:43:43.525Z,6.53
2023-03-04T06:46:24.343Z,6.33
2023-03-04T06:49:00.529Z,7.30
2023-03-04T06:51:39.598Z,12.17
2023-03-04T06:54:16.138Z,3.50
2023-03-04T06:56:49.814Z,11.97
2023-03-04T07:02:03.807Z,11.53
2023-03-04T07:04:34.971Z,14.80
2023-03-04T07:07:05.831Z,17.25
2023-03-04T07:09:37.298Z,9.47
2023-03-04T07:12:15.586Z,9.32
2023-03-04T07:15:01.093Z,15.50
2023-03-04T07:17:33.414Z,10.20
2023-03-04T07:20:05.109Z,9.33
2023-03-04T07:22:35.652Z,12.65
2023-03-04T07:25:11.095Z,9.63
2023-03-04T07:27:45.277Z,17.30
2023-03-04T07:30:19.416Z,16.63
2023-03-04T07:32:49.923Z,5.70
2023-03-04T07:35:24.680Z,14.70
2023-03-04T07:37:57.903Z,9.43
2023-03-04T07:40:28.573Z,16.33
2023-03-04T07:45:48.418Z,18.30
2023-03-04T07:48:19.483Z,17.80
2023-03-04T07:50:54.238Z,14.07
2023-03-04T07:53:29.554Z,10.37
2023-03-04T07:56:07.430Z,9.93
2023-03-04T08:01:25.190Z,7.90
2023-03-04T08:04:09.418Z,6.07
2023-03-04T08:06:47.974Z,10.33
2023-03-04T08:09:24.542Z,10.10
2023-03-04T08:12:05.001Z,15.77
2023-03-04T08:14:39.799Z,9.60
2023-03-04T08:20:03.317Z,16.23
2023-03-04T08:22:45.740Z,11.63
2023-03-04T08:25:19.419Z,11.13
2023-03-04T08:27:56.558Z,9.83
2023-03-04T08:30:33.723Z,13.80
2023-03-04T08:33:14.174Z,16.80
2023-03-04T08:35:48.303Z,10.07
2023-03-04T08:38:23.587Z,8.07
2023-03-04T08:41:02.585Z,14.27
2023-03-04T08:43:40.604Z,7.33
2023-03-04T08:46:12.480Z,17.43
2023-03-04T08:51:26.379Z,14.30
2023-03-04T08:53:59.851Z,20.73
2023-03-04T08:56:35.784Z,17.60
2023-03-04T08:59:07.039Z,28.13
2023-03-04T09:01:37.889Z,12.55
2023-03-04T09:04:15.835Z,9.10
2023-03-04T09:06:46.712Z,12.17
2023-03-04T09:09:17.492Z,19.57
2023-03-04T09:11:54.149Z,10.40
2023-03-04T09:14:31.811Z,6.90
2023-03-04T09:17:03.620Z,17.37
2023-03-04T09:24:51.781Z,14.33
2023-03-04T09:27:24.761Z,7.97
2023-03-04T09:29:54.254Z,18.57
2023-03-04T09:32:28.567Z,5.43
2023-03-04T09:34:58.978Z,13.40
2023-03-04T09:37:35.286Z,14.55
2023-03-04T09:40:14.728Z,10.50
2023-03-04T09:42:57.523Z,9.00
2023-03-04T09:45:37.214Z,7.80
2023-03-04T09:48:16.790Z,7.20
2023-03-04T09:51:16.835Z,17.50
2023-03-04T09:54:10.060Z,10.10
2023-03-04T09:56:56.978Z,13.03
2023-03-04T09:59:46.078Z,14.63
2023-03-04T10:02:33.161Z,23.43
2023-03-04T10:05:10.517Z,16.87
2023-03-04T10:07:49.161Z,10.70
2023-03-04T10:10:45.366Z,18.43
2023-03-04T10:13:23.387Z,12.70
2023-03-04T10:16:01.254Z,14.87
2023-03-04T10:18:40.146Z,11.80
2023-03-04T10:21:38.909Z,14.87
2023-03-04T10:24:23.733Z,9.03
2023-03-04T10:27:19.167Z,15.67
2023-03-04T10:29:58.231Z,19.40
2023-03-04T10:35:15.931Z,17.70
2023-03-04T10:40:45.846Z,13.13
2023-03-04T10:46:13.913Z,9.87
2023-03-04T10:48:45.330Z,9.67
2023-03-04T10:54:11.245Z,19.17
2023-03-04T10:57:08.407Z,12.80
2023-03-04T11:00:01.880Z,12.37
2023-03-04T11:02:37.523Z,9.03
2023-03-04T11:05:29.037Z,12.93
2023-03-04T11:08:06.612Z,10.05
2023-03-04T11:10:44.518Z,11.17
2023-03-04T11:13:24.231Z,10.83
2023-03-04T11:16:12.074Z,8.97
2023-03-04T11:19:27.437Z,20.53
2023-03-04T11:21:57.843Z,13.50
2023-03-04T11:24:40.521Z,18.77
2023-03-04T11:27:32.921Z,11.90
2023-03-04T11:30:56.784Z,19.42
2023-03-04T11:33:38.695Z,11.67
2023-03-04T11:36:53.101Z,10.00
2023-03-04T11:39:44.639Z,15.73
2023-03-04T11:43:00.091Z,15.60
2023-03-04T11:46:19.016Z,13.57
2023-03-04T11:49:02.986Z,12.43
2023-03-04T11:51:54.672Z,12.80
2023-03-04T11:54:59.953Z,15.10
2023-03-04T11:58:04.977Z,9.83
2023-03-04T12:04:50.995Z,20.93
2023-03-04T12:07:48.976Z,17.17
2023-03-04T12:10:54.685Z,16.63
2023-03-04T12:13:54.999Z,22.93
2023-03-04T12:17:20.394Z,15.47
2023-03-04T12:20:14.862Z,17.30
2023-03-04T12:23:16.242Z,12.67
2023-03-04T12:26:22.635Z,18.80
2023-03-04T12:29:22.409Z,17.00
2023-03-04T12:32:08.023Z,14.00
2023-03-04T12:35:01.412Z,17.07
2023-03-04T12:38:17.198Z,15.77
2023-03-04T12:41:09.405Z,12.90
2023-03-04T12:46:43.275Z,12.83
2023-03-04T12:49:35.668Z,19.80
2023-03-04T12:52:53.873Z,20.60
2023-03-04T12:55:31.439Z,17.37
2023-03-04T12:58:19.033Z,14.07
2023-03-04T13:01:19.186Z,20.53
2023-03-04T13:07:48.545Z,15.67
2023-03-04T13:10:22.901Z,19.47
2023-03-04T13:13:02.196Z,16.50
2023-03-04T13:15:42.248Z,20.20
2023-03-04T13:18:31.135Z,17.30
2023-03-04T13:21:44.140Z,14.43
2023-03-04T13:24:46.745Z,18.70
2023-03-04T13:28:05.888Z,15.47
2023-03-04T13:31:00.943Z,18.80
2023-03-04T13:33:38.687Z,17.53
2023-03-04T13:36:49.141Z,21.17
2023-03-04T13:39:30.877Z,13.83
2023-03-04T13:42:01.075Z,15.43
2023-03-04T13:44:50.391Z,16.70
2023-03-04T13:47:51.886Z,14.83
2023-03-04T13:50:38.966Z,13.30
2023-03-04T13:53:51.317Z,15.77
2023-03-04T13:56:32.167Z,20.20
2023-03-04T13:59:51.452Z,14.80
2023-03-04T14:02:31.262Z,14.50
2023-03-04T14:05:17.224Z,21.23
2023-03-04T14:07:52.843Z,15.60
2023-03-04T14:10:34.178Z,16.33
2023-03-04T14:13:19.291Z,16.83
2023-03-04T14:15:58.682Z,25.57
2023-03-04T14:18:29.860Z,30.60
2023-03-04T14:21:04.598Z,15.60
2023-03-04T14:23:43.096Z,19.93
2023-03-04T14:26:23.636Z,15.77
2023-03-04T14:29:02.526Z,10.95
2023-03-04T14:31:40.332Z,18.53
2023-03-04T14:34:23.952Z,16.33
2023-03-04T14:36:54.472Z,15.90
2023-03-04T14:39:28.322Z,14.13
2023-03-04T14:42:05.711Z,13.93
2023-03-04T14:44:49.023Z,14.02
2023-03-04T14:47:41.053Z,19.02
2023-03-04T14:50:37.662Z,15.82
2023-03-04T14:53:26.736Z,10.60
2023-03-04T14:56:13.337Z,12.98
2023-03-04T14:59:02.661Z,12.20
2023-03-04T15:01:49.583Z,19.15
2023-03-04T15:04:26.855Z,14.73
2023-03-04T15:06:57.350Z,18.55
2023-03-04T15:09:45.463Z,10.75
2023-03-04T15:12:16.257Z,14.73
2023-03-04T15:14:57.286Z,9.02
2023-03-04T15:17:51.255Z,16.10
2023-03-04T15:20:32.565Z,12.55
2023-03-04T15:23:22.846Z,12.63
2023-03-04T15:26:02.639Z,13.70
2023-03-04T15:28:42.554Z,13.18
2023-03-04T15:31:20.871Z,17.57
2023-03-04T15:33:53.984Z,12.10
2023-03-04T15:36:34.881Z,12.35
2023-03-04T15:39:03.029Z,12.80
2023-03-04T15:41:36.451Z,10.90
2023-03-04T15:44:14.035Z,18.70
2023-03-04T15:46:48.102Z,9.60
2023-03-04T15:49:23.060Z,10.23
2023-03-04T15:52:05.590Z,19.40
2023-03-04T15:54:35.257Z,5.03
2023-03-04T15:57:10.206Z,7.57
2023-03-04T15:59:47.839Z,3.27
2023-03-04T16:02:24.563Z,9.03
2023-03-04T16:04:55.591Z,9.47
2023-03-04T16:07:33.297Z,5.65
2023-03-04T16:10:15.428Z,8.40
2023-03-04T16:12:51.980Z,11.17
2023-03-04T16:15:35.464Z,20.10
2023-03-04T16:18:04.393Z,7.73
2023-03-04T16:20:35.885Z,43.77
2023-03-04T16:23:08.403Z,58.73
2023-03-04T16:25:46.622Z,61.50
2023-03-04T16:28:20.104Z,190.50
2023-03-04T16:30:53.745Z,114.67
2023-03-04T16:33:24.736Z,45.63
2023-03-04T16:35:55.166Z,47.47
2023-03-04T16:38:36.917Z,18.43
2023-03-04T16:41:20.225Z,10.38
2023-03-04T16:43:50.291Z,11.23
2023-03-04T16:46:20.885Z,6.03
2023-03-04T16:48:53.946Z,18.93
2023-03-04T16:51:35.193Z,6.47
2023-03-04T16:54:12.485Z,8.13
2023-03-04T16:56:43.978Z,4.97
2023-03-04T16:59:21.836Z,8.77
2023-03-04T17:02:02.735Z,6.43
2023-03-04T17:04:33.122Z,3.53
2023-03-04T17:07:06.542Z,12.40
2023-03-04T17:09:34.958Z,10.37
2023-03-04T17:12:13.670Z,4.23
2023-03-04T17:14:52.106Z,5.07
2023-03-04T17:17:28.421Z,12.70
2023-03-04T17:19:59.495Z,11.67
2023-03-04T17:22:44.831Z,9.30
2023-03-04T17:25:14.558Z,11.97
2023-03-04T17:27:48.468Z,5.47
2023-03-04T17:30:19.215Z,10.97
2023-03-04T17:35:32.133Z,7.97
2023-03-04T17:38:00.538Z,6.47
2023-03-04T17:40:28.240Z,5.50
2023-03-04T17:42:56.991Z,9.47
2023-03-04T17:45:28.507Z,14.17
2023-03-04T17:47:59.156Z,7.50
2023-03-04T17:50:35.721Z,8.37
2023-03-04T17:53:05.884Z,16.07
2023-03-04T17:55:35.958Z,11.10
2023-03-04T17:58:04.489Z,17.77
2023-03-04T18:00:38.087Z,72.77
2023-03-04T18:03:18.287Z,35.33
2023-03-04T18:05:59.985Z,15.33
2023-03-04T18:11:19.804Z,16.63
2023-03-04T18:13:51.153Z,17.27
2023-03-04T18:16:31.647Z,9.70
2023-03-04T18:21:52.542Z,5.83
2023-03-04T18:24:31.173Z,12.13
2023-03-04T18:27:06.191Z,7.83
2023-03-04T18:29:37.478Z,11.83
2023-03-04T18:32:15.494Z,4.85
2023-03-04T18:34:46.811Z,10.97
2023-03-04T18:37:18.036Z,11.60
2023-03-04T18:40:04.678Z,9.35
2023-03-04T18:42:46.887Z,17.00
2023-03-04T18:45:24.716Z,14.03
2023-03-04T18:48:02.092Z,12.57
2023-03-04T18:50:32.920Z,9.33
2023-03-04T18:53:03.748Z,20.50
2023-03-04T18:55:34.253Z,21.03
2023-03-04T18:58:14.284Z,14.37
2023-03-04T19:00:45.467Z,9.97
2023-03-04T19:03:20.149Z,5.25
2023-03-04T19:05:54.403Z,4.30
2023-03-04T19:08:25.426Z,6.43
2023-03-04T19:10:56.316Z,6.18
2023-03-04T19:13:29.507Z,13.47
2023-03-04T19:16:00.815Z,8.70
2023-03-04T19:18:50.303Z,12.07
2023-03-04T19:21:31.633Z,14.30
2023-03-04T19:24:01.598Z,16.60
2023-03-04T19:26:38.571Z,17.03
2023-03-04T19:29:10.979Z,8.77
2023-03-04T19:31:42.815Z,5.60
2023-03-04T19:34:12.176Z,7.30
2023-03-04T19:36:43.382Z,3.87
2023-03-04T19:39:18.876Z,4.67
2023-03-04T19:41:57.623Z,3.00
2023-03-04T19:44:28.865Z,3.53
2023-03-04T19:47:09.161Z,16.52
2023-03-04T19:49:40.183Z,9.57
2023-03-04T19:52:16.171Z,8.70
2023-03-04T19:54:46.244Z,17.87
2023-03-04T19:57:16.831Z,11.40
2023-03-04T19:59:50.595Z,14.25
2023-03-04T20:02:21.262Z,9.23
2023-03-04T20:04:51.933Z,5.38
2023-03-04T20:07:22.600Z,16.13
2023-03-04T20:09:52.793Z,3.70
2023-03-04T20:12:24.362Z,3.90
2023-03-04T20:14:56.024Z,3.20
2023-03-04T20:17:27.433Z,2.20
2023-03-04T20:20:07.159Z,4.38
2023-03-04T20:22:38.493Z,11.47
2023-03-04T20:25:12.504Z,9.88
2023-03-04T20:27:54.706Z,8.47
2023-03-04T20:30:28.412Z,5.17
2023-03-04T20:32:57.874Z,3.63
2023-03-04T20:35:38.049Z,15.57
2023-03-04T20:38:08.433Z,5.50
2023-03-04T20:40:49.217Z,8.57
2023-03-04T20:43:20.235Z,13.77
2023-03-04T20:45:53.593Z,9.93
2023-03-04T20:48:22.163Z,21.07
2023-03-04T20:50:54.056Z,8.80
2023-03-04T20:56:09.625Z,27.70
2023-03-04T20:58:37.328Z,22.77
2023-03-04T21:01:08.448Z,12.43
2023-03-04T21:03:38.897Z,18.92
2023-03-04T21:06:12.278Z,14.00
2023-03-04T21:08:49.237Z,9.03
2023-03-04T21:11:18.657Z,13.13
2023-03-04T21:13:56.498Z,12.87
2023-03-04T21:19:22.952Z,9.03
2023-03-04T21:22:03.081Z,10.10
2023-03-04T21:24:34.951Z,12.93
2023-03-04T21:29:41.549Z,15.67
2023-03-04T21:32:28.164Z,11.27
2023-03-04T21:34:57.265Z,11.53
2023-03-04T21:37:29.963Z,8.03
2023-03-04T21:40:10.458Z,5.53
2023-03-04T21:42:41.374Z,4.87
2023-03-04T21:45:11.991Z,2.43
2023-03-04T21:47:42.318Z,5.33
2023-03-04T21:50:12.078Z,2.13
2023-03-04T21:52:58.299Z,5.87
2023-03-04T21:55:25.970Z,10.30
2023-03-04T21:57:56.538Z,13.10
2023-03-04T22:00:27.613Z,8.27
2023-03-04T22:02:58.072Z,7.05
2023-03-04T22:05:29.397Z,8.67
2023-03-04T22:08:02.773Z,6.63
2023-03-04T22:10:36.669Z,10.60
2023-03-04T22:13:11.814Z,4.43
2023-03-04T22:15:44.257Z,11.33
2023-03-04T22:18:15.372Z,15.53
2023-03-04T22:20:52.357Z,8.70
2023-03-04T22:23:25.276Z,14.30
2023-03-04T22:25:56.740Z,7.30
2023-03-04T22:28:28.519Z,4.37
2023-03-04T22:31:00.280Z,6.32
2023-03-04T22:33:47.405Z,6.80
2023-03-04T22:36:22.424Z,12.70
2023-03-04T22:38:53.332Z,13.87
2023-03-04T22:41:25.676Z,10.87
2023-03-04T22:43:56.616Z,7.47
2023-03-04T22:46:38.206Z,3.50
2023-03-04T22:49:09.797Z,15.50
2023-03-04T22:51:55.752Z,12.27
2023-03-04T22:54:30.509Z,9.80
2023-03-04T22:57:02.109Z,20.23
2023-03-04T22:59:31.304Z,8.05
2023-03-04T23:02:04.744Z,13.80
2023-03-04T23:04:35.314Z,5.20
2023-03-04T23:07:08.021Z,16.77
2023-03-04T23:15:18.607Z,5.33
2023-03-04T23:17:48.464Z,7.23
2023-03-04T23:20:23.943Z,11.57
2023-03-04T23:23:00.381Z,12.63
2023-03-04T23:25:34.985Z,6.33
2023-03-04T23:28:09.064Z,10.00
2023-03-04T23:30:42.718Z,8.10
2023-03-04T23:33:16.221Z,7.10
2023-03-04T23:38:37.317Z,8.87
2023-03-04T23:41:15.423Z,8.07
2023-03-04T23:43:56.061Z,16.37
2023-03-04T23:46:29.688Z,6.53
2023-03-04T23:48:59.464Z,9.33
2023-03-04T23:51:29.922Z,6.50
2023-03-04T23:54:02.299Z,5.97
2023-03-04T23:56:33.269Z,6.67
2023-03-04T23:59:08.230Z,6.13
